Nyk Orpheus — 7JDN — position and weather

sailwx.info

Track history (hours):
 
Tides and Currents Weather Stations Pressure Air Temp Water Temp Dewpoint Dewpoint Depression Visibility Wind Speed Wind Dir Waves Ship Positions

Nyk Orpheus

Last reported at 2016-Aug-17 20:31 UTC. Time now 2016-Aug-29 01:55 UTC.
Position N 31°27' E 032°21'.
Warning: this ship's position is 11 days out of date.

Length 336 m; draft 13.9 m.

Type: Other ship. MMSI: 432657000.

Date/timePositionNaut miles runAvg speedWind from/ knotsBaromVisibWave heightAir tempDewpointWater temp
2016-Aug-17 20:31N 31°27' E 032°21'0 0.1
2016-Aug-17 19:12N 31°27' E 032°21'  
2016-Aug-15 07:07N 36°19' E 014°54'1017.3
2016-Aug-15 06:33N 36°22' E 014°43'3517.5
2016-Aug-15 04:33N 36°30' E 014°01'1818.1
2016-Aug-15 03:33N 36°37' E 013°40'1818.0
2016-Aug-15 02:33N 36°43' E 013°18'1717.6
2016-Aug-15 01:33N 36°49' E 012°58'1817.1
2016-Aug-15 00:32N 36°53' E 012°36'2017.7
2016-Aug-14 23:25N 36°59' E 012°13'1717.9
2016-Aug-14 22:29N 37°04' E 011°53'18917.3
2016-Aug-14 11:32N 37°56' E 008°04'26117.0
2016-Aug-13 20:13N 37°20' E 002°37'6816.9
2016-Aug-13 16:13N 37°03' E 001°15'1316.5
2016-Aug-13 15:23N 37°00' E 000°58'18316.9
2016-Aug-13 04:33N 36°18' W 002°43'1717.2
2016-Aug-13 03:33N 36°16' W 003°05'1917.7
2016-Aug-13 02:29N 36°13' W 003°28'7618.2
2016-Aug-12 22:19N 36°01' W 005°01'1317.5
2016-Aug-12 21:33N 36°00' W 005°17'1717.0
2016-Aug-12 20:33N 35°55' W 005°37'1716.8
2016-Aug-12 19:33N 35°53' W 005°57'15016.4
2016-Aug-12 10:25N 36°29' W 008°57'6015.0
2016-Aug-12 06:26N 37°17' W 009°43'3317.4
2016-Aug-12 04:33N 37°49' W 009°52'1817.8
2016-Aug-12 03:33N 38°06' W 009°57'1817.5
2016-Aug-12 02:33N 38°23' W 010°02'1717.6
2016-Aug-12 01:34N 38°40' W 010°07'1817.8
2016-Aug-12 00:32N 38°58' W 010°08'69216.7
2016-Aug-10 07:05N 49°37' W 003°54'1017.8
2016-Aug-10 06:33N 49°41' W 003°41'1919.0
2016-Aug-10 05:33N 49°51' W 003°15'1919.4
2016-Aug-10 04:33N 49°59' W 002°48'6817.1
2016-Aug-10 00:33N 49°52' W 001°02'1616.3
2016-Aug-09 23:33N 49°44' W 000°41'1616.4
2016-Aug-09 22:33N 49°36' W 000°19'1212.1
2016-Aug-09 21:33N 49°31' W 000°02'8 8.0
2016-Aug-09 20:33N 49°28' E 000°09'0 0.0
2016-Aug-09 19:32N 49°28' E 000°09'0 0.0
2016-Aug-09 18:32N 49°28' E 000°09'0 0.0
2016-Aug-09 17:32N 49°28' E 000°09'0 0.0
2016-Aug-09 16:32N 49°28' E 000°09'0 0.0
2016-Aug-09 15:32N 49°28' E 000°09'0 0.0
2016-Aug-09 14:32N 49°28' E 000°09'0 0.0
2016-Aug-09 13:32N 49°28' E 000°09'0 0.0
2016-Aug-09 12:32N 49°28' E 000°09'0 0.0
2016-Aug-09 11:32N 49°28' E 000°09'0 0.0
2016-Aug-09 10:32N 49°28' E 000°09'0 0.0
2016-Aug-09 09:32N 49°28' E 000°09'0 0.0
2016-Aug-09 08:32N 49°28' E 000°09'0 0.0
2016-Aug-09 07:32N 49°28' E 000°09'0 0.0
2016-Aug-09 04:32N 49°28' E 000°09'0 0.0
2016-Aug-09 03:32N 49°28' E 000°09'0 0.0
2016-Aug-09 02:32N 49°28' E 000°09'0 0.0
2016-Aug-09 01:32N 49°28' E 000°09'0 0.0
2016-Aug-09 00:32N 49°28' E 000°09'0 0.0
2016-Aug-08 23:32N 49°28' E 000°09'0 0.0
2016-Aug-08 22:32N 49°28' E 000°09'0 0.0
2016-Aug-08 21:32N 49°28' E 000°09'0 0.0
2016-Aug-08 20:32N 49°28' E 000°09'0 0.0
2016-Aug-08 19:32N 49°28' E 000°09'0 0.0
2016-Aug-08 18:32N 49°28' E 000°09'0 0.0
2016-Aug-08 17:32N 49°28' E 000°09'0 0.0
2016-Aug-08 16:32N 49°28' E 000°09'0 0.0
2016-Aug-08 15:32N 49°28' E 000°09'0 0.0
2016-Aug-08 14:32N 49°28' E 000°09'0 0.0
2016-Aug-08 13:32N 49°28' E 000°09'0 0.0
2016-Aug-08 12:32N 49°28' E 000°09'0 0.0
2016-Aug-08 11:32N 49°28' E 000°09'0 0.0
2016-Aug-08 10:32N 49°28' E 000°09'0 0.0
2016-Aug-08 09:32N 49°28' E 000°09'0 0.0
2016-Aug-08 08:32N 49°28' E 000°09'0 0.0
2016-Aug-08 07:32N 49°28' E 000°09'0 0.0
2016-Aug-08 06:32N 49°28' E 000°09'0 0.0
2016-Aug-08 05:33N 49°28' E 000°09'5 4.5
2016-Aug-08 04:33N 49°30' E 000°03'7 6.9
2016-Aug-08 03:33N 49°32' W 000°07'10 9.9
2016-Aug-08 02:33N 49°37' W 000°20'1918.7
2016-Aug-08 01:33N 49°55' W 000°31'1919.3
2016-Aug-08 00:34N 50°12' W 000°43'1818.0
2016-Aug-07 23:34N 50°29' W 000°54'1211.6
2016-Aug-07 22:33N 50°40' W 000°56'1514.6
2016-Aug-07 21:33N 50°47' W 001°17'8 8.0
2016-Aug-07 20:34N 50°53' W 001°24'  
Track history (hours):
 
Tides and Currents Weather Stations Pressure Air Temp Water Temp Dewpoint Dewpoint Depression Visibility Wind Speed Wind Dir Waves Ship Positions

Nyk Orpheus

Last reported at 2016-Aug-17 20:31 UTC. Time now 2016-Aug-29 01:55 UTC.
Position N 31°27' E 032°21'.
Warning: this ship's position is 11 days out of date.

Length 336 m; draft 13.9 m.

Type: Other ship. MMSI: 432657000.

Date/timePositionNaut miles runAvg speedWind from/ knotsBaromVisibWave heightAir tempDewpointWater temp
2016-Aug-17 20:31N 31°27' E 032°21'0 0.1
2016-Aug-17 19:12N 31°27' E 032°21'  
2016-Aug-15 07:07N 36°19' E 014°54'1017.3
2016-Aug-15 06:33N 36°22' E 014°43'3517.5
2016-Aug-15 04:33N 36°30' E 014°01'1818.1
2016-Aug-15 03:33N 36°37' E 013°40'1818.0
2016-Aug-15 02:33N 36°43' E 013°18'1717.6
2016-Aug-15 01:33N 36°49' E 012°58'1817.1
2016-Aug-15 00:32N 36°53' E 012°36'2017.7
2016-Aug-14 23:25N 36°59' E 012°13'1717.9
2016-Aug-14 22:29N 37°04' E 011°53'18917.3
2016-Aug-14 11:32N 37°56' E 008°04'26117.0
2016-Aug-13 20:13N 37°20' E 002°37'6816.9
2016-Aug-13 16:13N 37°03' E 001°15'1316.5
2016-Aug-13 15:23N 37°00' E 000°58'18316.9
2016-Aug-13 04:33N 36°18' W 002°43'1717.2
2016-Aug-13 03:33N 36°16' W 003°05'1917.7
2016-Aug-13 02:29N 36°13' W 003°28'7618.2
2016-Aug-12 22:19N 36°01' W 005°01'1317.5
2016-Aug-12 21:33N 36°00' W 005°17'1717.0
2016-Aug-12 20:33N 35°55' W 005°37'1716.8
2016-Aug-12 19:33N 35°53' W 005°57'15016.4
2016-Aug-12 10:25N 36°29' W 008°57'6015.0
2016-Aug-12 06:26N 37°17' W 009°43'3317.4
2016-Aug-12 04:33N 37°49' W 009°52'1817.8
2016-Aug-12 03:33N 38°06' W 009°57'1817.5
2016-Aug-12 02:33N 38°23' W 010°02'1717.6
2016-Aug-12 01:34N 38°40' W 010°07'1817.8
2016-Aug-12 00:32N 38°58' W 010°08'69216.7
2016-Aug-10 07:05N 49°37' W 003°54'1017.8
2016-Aug-10 06:33N 49°41' W 003°41'1919.0
2016-Aug-10 05:33N 49°51' W 003°15'1919.4
2016-Aug-10 04:33N 49°59' W 002°48'6817.1
2016-Aug-10 00:33N 49°52' W 001°02'1616.3
2016-Aug-09 23:33N 49°44' W 000°41'1616.4
2016-Aug-09 22:33N 49°36' W 000°19'1212.1
2016-Aug-09 21:33N 49°31' W 000°02'8 8.0
2016-Aug-09 20:33N 49°28' E 000°09'0 0.0
2016-Aug-09 19:32N 49°28' E 000°09'0 0.0
2016-Aug-09 18:32N 49°28' E 000°09'0 0.0
2016-Aug-09 17:32N 49°28' E 000°09'0 0.0
2016-Aug-09 16:32N 49°28' E 000°09'0 0.0
2016-Aug-09 15:32N 49°28' E 000°09'0 0.0
2016-Aug-09 14:32N 49°28' E 000°09'0 0.0
2016-Aug-09 13:32N 49°28' E 000°09'0 0.0
2016-Aug-09 12:32N 49°28' E 000°09'0 0.0
2016-Aug-09 11:32N 49°28' E 000°09'0 0.0
2016-Aug-09 10:32N 49°28' E 000°09'0 0.0
2016-Aug-09 09:32N 49°28' E 000°09'0 0.0
2016-Aug-09 08:32N 49°28' E 000°09'0 0.0
2016-Aug-09 07:32N 49°28' E 000°09'0 0.0
2016-Aug-09 04:32N 49°28' E 000°09'0 0.0
2016-Aug-09 03:32N 49°28' E 000°09'0 0.0
2016-Aug-09 02:32N 49°28' E 000°09'0 0.0
2016-Aug-09 01:32N 49°28' E 000°09'0 0.0
2016-Aug-09 00:32N 49°28' E 000°09'0 0.0
2016-Aug-08 23:32N 49°28' E 000°09'0 0.0
2016-Aug-08 22:32N 49°28' E 000°09'0 0.0
2016-Aug-08 21:32N 49°28' E 000°09'0 0.0
2016-Aug-08 20:32N 49°28' E 000°09'0 0.0
2016-Aug-08 19:32N 49°28' E 000°09'0 0.0
2016-Aug-08 18:32N 49°28' E 000°09'0 0.0
2016-Aug-08 17:32N 49°28' E 000°09'0 0.0
2016-Aug-08 16:32N 49°28' E 000°09'0 0.0
2016-Aug-08 15:32N 49°28' E 000°09'0 0.0
2016-Aug-08 14:32N 49°28' E 000°09'0 0.0
2016-Aug-08 13:32N 49°28' E 000°09'0 0.0
2016-Aug-08 12:32N 49°28' E 000°09'0 0.0
2016-Aug-08 11:32N 49°28' E 000°09'0 0.0
2016-Aug-08 10:32N 49°28' E 000°09'0 0.0
2016-Aug-08 09:32N 49°28' E 000°09'0 0.0
2016-Aug-08 08:32N 49°28' E 000°09'0 0.0
2016-Aug-08 07:32N 49°28' E 000°09'0 0.0
2016-Aug-08 06:32N 49°28' E 000°09'0 0.0
2016-Aug-08 05:33N 49°28' E 000°09'5 4.5
2016-Aug-08 04:33N 49°30' E 000°03'7 6.9
2016-Aug-08 03:33N 49°32' W 000°07'10 9.9
2016-Aug-08 02:33N 49°37' W 000°20'1918.7
2016-Aug-08 01:33N 49°55' W 000°31'1919.3
2016-Aug-08 00:34N 50°12' W 000°43'1818.0
2016-Aug-07 23:34N 50°29' W 000°54'1211.6
2016-Aug-07 22:33N 50°40' W 000°56'1514.6
2016-Aug-07 21:33N 50°47' W 001°17'8 8.0
2016-Aug-07 20:34N 50°53' W 001°24'  

Dump ship's entire track history